createdAt,value
2023-02-25T00:00:00.885Z,6.80
2023-02-25T00:02:27.612Z,6.80
2023-02-25T00:04:54.289Z,6.90
2023-02-25T00:07:22.740Z,7.00
2023-02-25T00:09:49.346Z,7.10
2023-02-25T00:12:15.968Z,7.10
2023-02-25T00:14:42.582Z,7.40
2023-02-25T00:17:09.336Z,7.50
2023-02-25T00:19:36.035Z,7.70
2023-02-25T00:22:02.654Z,7.50
2023-02-25T00:24:29.218Z,7.50
2023-02-25T00:26:55.790Z,7.60
2023-02-25T00:29:22.882Z,7.70
2023-02-25T05:32:50.158Z,7.30
2023-02-25T05:35:17.440Z,7.40
2023-02-25T05:37:44.072Z,7.40
2023-02-25T05:40:14.170Z,7.20
2023-02-25T05:42:40.935Z,6.90
2023-02-25T05:45:09.073Z,6.70
2023-02-25T05:47:35.893Z,6.40
2023-02-25T05:50:03.049Z,6.40
2023-02-25T05:52:29.693Z,6.40
2023-02-25T05:54:56.387Z,6.40
2023-02-25T05:57:23.896Z,6.20
2023-02-25T05:59:50.948Z,6.00
2023-02-25T06:02:17.592Z,6.00
2023-02-25T06:04:44.226Z,6.20
2023-02-25T06:07:10.879Z,6.30
2023-02-25T06:09:37.518Z,6.30
2023-02-25T06:12:04.439Z,6.50
2023-02-25T06:14:31.028Z,6.60
2023-02-25T06:16:57.758Z,6.60
2023-02-25T06:19:26.380Z,6.70
2023-02-25T06:21:54.789Z,6.90
2023-02-25T06:24:22.540Z,6.90
2023-02-25T06:26:49.314Z,6.90
2023-02-25T06:29:15.988Z,6.90
2023-02-25T06:31:43.253Z,7.00
2023-02-25T06:34:10.348Z,6.80
2023-02-25T06:36:36.981Z,6.50
2023-02-25T06:39:03.859Z,6.30
2023-02-25T06:41:30.551Z,6.30
2023-02-25T06:43:57.234Z,6.10
2023-02-25T06:46:26.088Z,6.20
2023-02-25T06:48:53.566Z,6.30
2023-02-25T06:51:20.178Z,6.50
2023-02-25T06:53:47.677Z,6.60
2023-02-25T06:56:15.526Z,6.70
2023-02-25T06:58:42.939Z,6.60
2023-02-25T07:01:12.373Z,6.50
2023-02-25T07:03:39.292Z,6.60
2023-02-25T07:06:06.796Z,6.30
2023-02-25T07:08:33.457Z,6.40
2023-02-25T07:11:19.275Z,6.40
2023-02-25T07:13:51.306Z,6.50
2023-02-25T07:16:18.281Z,6.70
2023-02-25T07:18:45.362Z,6.90
2023-02-25T07:21:15.730Z,7.10
2023-02-25T07:23:42.864Z,7.20
2023-02-25T07:26:11.539Z,7.30
2023-02-25T07:28:38.314Z,7.40
2023-02-25T07:31:14.051Z,7.40
2023-02-25T07:33:41.703Z,7.40
2023-02-25T07:36:09.643Z,7.30
2023-02-25T07:38:37.254Z,7.20
2023-02-25T07:41:06.137Z,7.20
2023-02-25T07:43:32.897Z,7.30
2023-02-25T07:46:00.164Z,7.10
2023-02-25T07:48:27.462Z,7.20
2023-02-25T07:50:54.185Z,7.10
2023-02-25T07:53:22.475Z,7.30
2023-02-25T07:55:49.653Z,7.30
2023-02-25T07:58:16.354Z,7.20
2023-02-25T08:00:45.712Z,7.20
2023-02-25T08:03:12.588Z,7.30
2023-02-25T08:05:39.243Z,7.30
2023-02-25T08:08:05.982Z,7.40
2023-02-25T08:10:32.800Z,7.20
2023-02-25T08:12:59.440Z,7.30
2023-02-25T08:15:26.133Z,7.40
2023-02-25T08:17:54.321Z,7.20
2023-02-25T08:20:21.196Z,7.40
2023-02-25T08:22:47.884Z,7.50
2023-02-25T08:25:14.715Z,7.30
2023-02-25T08:27:41.382Z,7.30
2023-02-25T08:30:08.775Z,7.20
2023-02-25T08:32:36.682Z,7.20
2023-02-25T08:35:04.130Z,7.40
2023-02-25T08:37:30.827Z,7.50
2023-02-25T08:39:57.557Z,7.70
2023-02-25T08:42:24.291Z,7.70
2023-02-25T08:44:51.161Z,7.80
2023-02-25T08:47:17.803Z,7.80
2023-02-25T08:49:44.522Z,7.90
2023-02-25T08:52:12.003Z,7.80
2023-02-25T08:54:39.818Z,7.70
2023-02-25T08:57:06.521Z,7.70
2023-02-25T08:59:35.990Z,7.70
2023-02-25T09:02:07.305Z,7.80
2023-02-25T09:04:34.595Z,7.80
2023-02-25T09:07:02.041Z,7.80
2023-02-25T09:09:28.674Z,7.70
2023-02-25T09:11:55.464Z,7.60
2023-02-25T09:14:22.636Z,7.50
2023-02-25T09:16:49.650Z,7.50
2023-02-25T09:19:18.262Z,7.60
2023-02-25T09:21:48.203Z,7.70
2023-02-25T09:24:15.853Z,7.80
2023-02-25T09:26:42.589Z,7.80
2023-02-25T09:29:10.064Z,7.80
2023-02-25T09:31:37.796Z,8.00
2023-02-25T09:34:07.398Z,7.80
2023-02-25T09:36:34.140Z,7.80
2023-02-25T09:39:00.933Z,7.80
2023-02-25T09:41:33.469Z,7.80
2023-02-25T09:44:13.508Z,7.90
2023-02-25T09:47:02.578Z,7.80
2023-02-25T09:49:38.383Z,7.90
2023-02-25T09:52:31.789Z,8.00
2023-02-25T09:55:17.835Z,8.00
2023-02-25T09:57:54.115Z,8.00
2023-02-25T10:00:22.797Z,8.00
2023-02-25T10:03:06.886Z,8.10
2023-02-25T10:06:01.653Z,8.00
2023-02-25T10:08:28.551Z,8.10
2023-02-25T10:10:55.195Z,8.10
2023-02-25T10:13:39.844Z,8.00
2023-02-25T10:16:15.316Z,8.00
2023-02-25T10:18:47.985Z,8.10
2023-02-25T10:21:41.545Z,8.10
2023-02-25T10:24:25.901Z,8.00
2023-02-25T10:27:02.923Z,8.00
2023-02-25T10:29:49.086Z,7.80
2023-02-25T10:32:22.996Z,8.00
2023-02-25T10:34:57.861Z,8.00
2023-02-25T10:37:43.044Z,8.10
2023-02-25T10:40:15.647Z,8.20
2023-02-25T10:42:47.260Z,8.30
2023-02-25T10:45:20.408Z,8.40
2023-02-25T10:47:52.432Z,8.40
2023-02-25T10:50:44.418Z,8.50
2023-02-25T10:53:18.824Z,8.50
2023-02-25T10:55:53.318Z,8.50
2023-02-25T10:58:40.913Z,8.60
2023-02-25T11:01:16.086Z,8.60
2023-02-25T11:04:00.538Z,8.60
2023-02-25T11:06:38.415Z,8.50
2023-02-25T11:09:26.899Z,8.60
2023-02-25T11:12:13.930Z,8.60
2023-02-25T11:14:40.574Z,8.70
2023-02-25T11:17:20.311Z,8.70
2023-02-25T11:19:55.577Z,8.60
2023-02-25T11:22:44.469Z,8.60
2023-02-25T11:25:29.656Z,8.50
2023-02-25T11:27:58.885Z,8.60
2023-02-25T11:30:33.248Z,8.60
2023-02-25T11:33:06.046Z,8.60
2023-02-25T11:35:38.992Z,8.40
2023-02-25T11:38:25.478Z,8.40
2023-02-25T11:40:52.153Z,8.50
2023-02-25T11:46:00.228Z,8.50
2023-02-25T11:48:45.098Z,8.50
2023-02-25T11:51:34.830Z,8.50
2023-02-25T11:54:04.879Z,8.50
2023-02-25T11:56:36.466Z,8.50
2023-02-25T11:59:18.178Z,8.50
2023-02-25T12:02:21.945Z,8.60
2023-02-25T12:05:08.929Z,8.50
2023-02-25T12:08:12.594Z,8.60
2023-02-25T12:11:05.069Z,8.50
2023-02-25T12:13:59.691Z,8.60
2023-02-25T12:16:45.544Z,8.70
2023-02-25T12:20:04.759Z,8.40
2023-02-25T12:23:17.458Z,8.40
2023-02-25T12:26:14.532Z,8.50
2023-02-25T12:28:49.722Z,8.70
2023-02-25T12:32:14.665Z,8.80
2023-02-25T12:34:50.057Z,8.80
2023-02-25T12:37:16.683Z,8.80
2023-02-25T12:39:55.390Z,8.70
2023-02-25T12:42:42.238Z,8.70
2023-02-25T12:45:40.297Z,8.80
2023-02-25T12:48:32.749Z,8.70
2023-02-25T12:51:05.236Z,8.90
2023-02-25T12:53:58.460Z,9.10
2023-02-25T12:56:46.756Z,9.30
2023-02-25T12:59:32.296Z,9.40
2023-02-25T13:02:36.701Z,9.40
2023-02-25T13:05:18.332Z,9.70
2023-02-25T13:08:21.728Z,9.90
2023-02-25T13:10:54.575Z,10.00
2023-02-25T13:13:30.551Z,10.20
2023-02-25T13:16:15.688Z,10.10
2023-02-25T13:19:02.658Z,10.10
2023-02-25T13:22:12.171Z,10.20
2023-02-25T13:25:23.724Z,10.40
2023-02-25T13:28:00.677Z,10.40
2023-02-25T13:30:47.720Z,10.20
2023-02-25T13:33:17.392Z,10.10
2023-02-25T13:36:11.312Z,9.90
2023-02-25T13:39:02.759Z,9.80
2023-02-25T13:41:41.693Z,9.90
2023-02-25T13:44:25.416Z,10.10
2023-02-25T13:46:52.505Z,9.90
2023-02-25T13:49:30.249Z,10.00
2023-02-25T13:52:21.135Z,10.20
2023-02-25T13:55:16.155Z,10.30
2023-02-25T13:58:02.584Z,10.30
2023-02-25T14:00:41.895Z,10.60
2023-02-25T14:03:14.370Z,10.80
2023-02-25T14:06:08.452Z,11.20
2023-02-25T14:08:53.505Z,11.30
2023-02-25T14:12:00.480Z,11.50
2023-02-25T14:15:15.747Z,11.70
2023-02-25T14:18:01.244Z,12.50
2023-02-25T14:20:40.100Z,13.00
2023-02-25T14:23:23.458Z,13.50
2023-02-25T14:26:11.443Z,13.90
2023-02-25T14:28:47.907Z,14.30
2023-02-25T14:31:31.924Z,14.40
2023-02-25T14:34:22.908Z,14.60
2023-02-25T14:37:06.475Z,14.90
2023-02-25T14:40:00.067Z,15.10
2023-02-25T14:43:02.105Z,15.00
2023-02-25T14:45:45.903Z,15.40
2023-02-25T14:48:44.842Z,15.60
2023-02-25T14:51:23.675Z,15.80
2023-02-25T14:54:31.983Z,16.00
2023-02-25T14:57:36.621Z,15.70
2023-02-25T15:00:23.491Z,15.60
2023-02-25T15:03:43.127Z,15.60
2023-02-25T15:06:42.597Z,15.60
2023-02-25T15:09:09.188Z,15.50
2023-02-25T15:11:57.055Z,15.50
2023-02-25T15:14:33.272Z,15.00
2023-02-25T15:17:20.951Z,14.00
2023-02-25T15:19:59.581Z,14.00
2023-02-25T15:22:29.288Z,14.40
2023-02-25T15:25:20.974Z,14.60
2023-02-25T15:27:56.500Z,14.80
2023-02-25T15:30:25.433Z,14.80
2023-02-25T15:32:59.572Z,14.60
2023-02-25T15:35:35.794Z,14.00
2023-02-25T15:38:48.072Z,13.80
2023-02-25T15:41:26.787Z,13.30
2023-02-25T15:43:57.417Z,13.30
2023-02-25T15:46:36.454Z,13.30
2023-02-25T15:49:15.336Z,13.20
2023-02-25T15:51:49.709Z,12.60
2023-02-25T15:54:28.466Z,12.50
2023-02-25T15:57:04.753Z,12.90
2023-02-25T15:59:47.076Z,13.30
2023-02-25T16:02:34.654Z,13.50
2023-02-25T16:05:05.609Z,13.60
2023-02-25T16:07:37.633Z,13.30
2023-02-25T16:10:13.967Z,13.00
2023-02-25T16:12:42.870Z,12.40
2023-02-25T16:15:41.711Z,12.10
2023-02-25T16:18:15.058Z,11.50
2023-02-25T16:20:54.549Z,11.00
2023-02-25T16:23:21.317Z,10.50
2023-02-25T16:26:29.049Z,10.30
2023-02-25T16:29:24.572Z,10.30
2023-02-25T16:32:09.213Z,10.10
2023-02-25T16:34:47.237Z,9.90
2023-02-25T16:37:34.540Z,9.70
2023-02-25T16:40:01.859Z,9.50
2023-02-25T16:42:32.888Z,9.40
2023-02-25T16:45:02.045Z,9.30
2023-02-25T16:47:32.087Z,9.20
2023-02-25T16:50:01.506Z,9.20
2023-02-25T16:52:37.193Z,9.20
2023-02-25T16:55:10.841Z,9.10
2023-02-25T16:57:38.782Z,9.00
2023-02-25T17:00:25.725Z,8.80
2023-02-25T17:02:53.705Z,8.80
2023-02-25T17:05:38.699Z,8.70
2023-02-25T17:08:14.543Z,8.50
2023-02-25T17:10:47.333Z,8.60
2023-02-25T17:13:25.041Z,8.40
2023-02-25T17:15:52.951Z,8.30
2023-02-25T17:18:33.579Z,8.30
2023-02-25T17:21:06.479Z,8.30
2023-02-25T17:23:39.739Z,8.20
2023-02-25T17:26:06.692Z,8.20
2023-02-25T17:28:34.156Z,8.20
2023-02-25T17:31:10.596Z,8.20
2023-02-25T17:33:53.433Z,8.20
2023-02-25T17:36:25.145Z,8.30
2023-02-25T17:39:01.765Z,8.20
2023-02-25T17:41:28.808Z,8.20
2023-02-25T17:43:55.830Z,8.20
2023-02-25T17:46:22.635Z,8.20
2023-02-25T17:48:56.946Z,8.10
2023-02-25T17:53:56.542Z,7.80
2023-02-25T17:56:31.594Z,7.80
2023-02-25T17:59:02.950Z,7.70
2023-02-25T18:01:44.100Z,7.60
2023-02-25T18:04:26.380Z,7.60
2023-02-25T18:06:55.523Z,7.10
2023-02-25T18:09:33.255Z,6.70
2023-02-25T18:12:01.281Z,6.70
2023-02-25T18:14:38.215Z,6.60
2023-02-25T18:17:21.766Z,6.40
2023-02-25T18:19:48.575Z,5.90
2023-02-25T18:22:29.352Z,5.60
2023-02-25T18:25:00.486Z,5.70
2023-02-25T18:27:32.839Z,6.00
2023-02-25T18:30:20.437Z,6.10
2023-02-25T18:32:47.558Z,5.70
2023-02-25T18:35:15.150Z,5.80
2023-02-25T18:37:43.022Z,5.90
2023-02-25T18:40:27.586Z,6.10
2023-02-25T18:42:54.380Z,5.90
2023-02-25T18:45:23.066Z,6.10
2023-02-25T18:47:52.716Z,6.20
2023-02-25T18:50:20.503Z,6.20
2023-02-25T18:52:47.481Z,6.30
2023-02-25T18:55:28.398Z,6.20
2023-02-25T18:57:55.173Z,6.10
2023-02-25T19:00:24.722Z,5.90
2023-02-25T19:02:54.830Z,5.80
2023-02-25T19:05:23.723Z,5.60
2023-02-25T19:07:52.872Z,5.50
2023-02-25T19:10:21.335Z,5.50
2023-02-25T19:12:49.638Z,5.40
2023-02-25T19:15:20.772Z,5.20
2023-02-25T19:17:48.686Z,4.70
2023-02-25T19:20:18.782Z,4.30
2023-02-25T19:22:48.754Z,4.20
2023-02-25T19:25:27.710Z,4.00
2023-02-25T19:27:56.313Z,4.00
2023-02-25T19:30:30.987Z,4.00
2023-02-25T19:33:04.531Z,4.00
2023-02-25T19:35:34.139Z,4.00
2023-02-25T19:38:01.597Z,4.20
2023-02-25T19:40:29.152Z,4.30
2023-02-25T19:42:56.415Z,4.00
2023-02-25T19:45:24.850Z,3.70
2023-02-25T19:47:53.391Z,3.70
2023-02-25T19:50:21.681Z,3.70
2023-02-25T19:52:48.556Z,4.00
2023-02-25T19:55:15.380Z,4.00
2023-02-25T19:57:42.605Z,4.00
2023-02-25T20:00:15.911Z,4.00
2023-02-25T20:02:43.109Z,3.60
2023-02-25T20:05:11.845Z,3.30
2023-02-25T20:07:39.076Z,3.20
2023-02-25T20:10:10.800Z,3.50
2023-02-25T20:12:38.326Z,3.60
2023-02-25T20:15:06.740Z,3.80
2023-02-25T20:17:36.269Z,4.00
2023-02-25T20:20:03.653Z,4.10
2023-02-25T20:22:30.337Z,4.20
2023-02-25T20:24:57.013Z,4.20
2023-02-25T20:27:24.129Z,4.30
2023-02-25T20:29:50.818Z,4.40
2023-02-25T20:32:17.767Z,4.40
2023-02-25T20:34:44.699Z,4.50
2023-02-25T20:37:19.631Z,4.50
2023-02-25T20:39:53.734Z,4.50
2023-02-25T20:42:29.999Z,4.60
2023-02-25T20:44:58.524Z,4.60
2023-02-25T20:47:30.904Z,4.70
2023-02-25T20:49:58.455Z,4.80
2023-02-25T20:52:26.775Z,4.80
2023-02-25T20:54:54.362Z,4.80
2023-02-25T20:57:23.912Z,4.90
2023-02-25T20:59:51.062Z,5.00
2023-02-25T21:02:18.101Z,5.10
2023-02-25T21:04:45.340Z,5.10
2023-02-25T21:07:12.758Z,5.20
2023-02-25T21:09:40.274Z,5.20
2023-02-25T21:12:07.654Z,5.10
2023-02-25T21:14:34.379Z,5.20
2023-02-25T21:17:01.067Z,5.20
2023-02-25T21:19:28.286Z,5.20
2023-02-25T21:21:55.432Z,5.30
2023-02-25T21:24:22.527Z,5.10
2023-02-25T21:26:49.288Z,5.00
2023-02-25T21:29:16.089Z,4.90
2023-02-25T21:31:43.506Z,4.90
2023-02-25T21:34:12.734Z,4.90
2023-02-25T21:36:40.468Z,4.90
2023-02-25T21:39:09.384Z,5.00
2023-02-25T21:41:37.985Z,4.90
2023-02-25T21:44:04.899Z,5.00
2023-02-25T21:46:31.705Z,5.10
2023-02-25T21:48:59.416Z,4.90
2023-02-25T21:51:28.250Z,5.00
2023-02-25T21:53:56.518Z,5.10
2023-02-25T21:56:28.365Z,5.10
2023-02-25T21:58:56.830Z,5.10
2023-02-25T22:01:26.277Z,5.20
2023-02-25T22:03:53.275Z,5.00
2023-02-25T22:06:23.797Z,4.90
2023-02-25T22:08:51.985Z,5.00
2023-02-25T22:11:24.355Z,5.00
2023-02-25T22:13:52.612Z,5.10
2023-02-25T22:16:19.820Z,4.90
2023-02-25T22:18:46.634Z,4.90
2023-02-25T22:21:25.730Z,4.80
2023-02-25T22:23:54.752Z,4.70
2023-02-25T22:26:24.220Z,4.60
2023-02-25T22:28:55.812Z,4.70
2023-02-25T22:31:23.602Z,4.70
2023-02-25T22:33:50.746Z,4.70
2023-02-25T22:36:19.064Z,4.60
2023-02-25T22:38:47.179Z,4.50
2023-02-25T22:41:16.802Z,4.40
2023-02-25T22:43:44.625Z,4.30
2023-02-25T22:46:14.159Z,4.30
2023-02-25T22:48:42.584Z,4.30
2023-02-25T22:51:10.642Z,4.40
2023-02-25T22:53:38.426Z,4.30
2023-02-25T22:56:08.594Z,4.30
2023-02-25T22:58:38.629Z,4.40
2023-02-25T23:01:05.492Z,4.40
2023-02-25T23:03:32.308Z,4.40
2023-02-25T23:05:59.018Z,4.40
2023-02-25T23:08:25.946Z,4.30
2023-02-25T23:10:53.244Z,4.20
2023-02-25T23:13:20.149Z,4.20
2023-02-25T23:15:47.770Z,4.10
2023-02-25T23:18:15.637Z,4.20
2023-02-25T23:20:42.532Z,4.30
2023-02-25T23:23:09.521Z,4.20
2023-02-25T23:25:39.005Z,4.20
2023-02-25T23:28:07.732Z,4.20
2023-02-25T23:30:38.190Z,4.00
2023-02-25T23:33:05.856Z,4.00
2023-02-25T23:35:33.467Z,4.00
2023-02-25T23:38:00.654Z,4.20
2023-02-25T23:40:28.799Z,4.30
2023-02-25T23:42:55.716Z,4.30
2023-02-25T23:45:22.622Z,4.30
2023-02-25T23:47:49.362Z,4.30
2023-02-25T23:50:16.787Z,4.20
2023-02-25T23:52:44.902Z,4.20
2023-02-25T23:55:13.244Z,4.30
2023-02-25T23:57:40.271Z,4.20
